createdAt,value
2018-05-26T00:01:10.574Z,92.60
2018-05-26T00:03:38.113Z,92.40
2018-05-26T00:06:05.704Z,92.70
2018-05-26T00:08:33.246Z,92.90
2018-05-26T00:11:00.842Z,92.70
2018-05-26T00:13:28.475Z,92.60
2018-05-26T00:15:56.055Z,92.50
2018-05-26T00:18:23.642Z,92.70
2018-05-26T00:20:51.241Z,92.60
2018-05-26T00:23:19.495Z,92.60
2018-05-26T00:25:47.075Z,92.60
2018-05-26T00:28:14.602Z,92.60
2018-05-26T00:30:42.182Z,92.50
2018-05-26T00:33:09.795Z,92.80
2018-05-26T00:35:37.389Z,92.70
2018-05-26T00:38:05.029Z,92.30
2018-05-26T00:40:32.623Z,92.30
2018-05-26T00:43:00.163Z,92.30
2018-05-26T00:45:27.799Z,92.40
2018-05-26T00:47:55.422Z,92.60
2018-05-26T00:50:23.006Z,93.40
2018-05-26T00:52:50.617Z,93.40
2018-05-26T00:55:18.174Z,93.40
2018-05-26T00:57:45.760Z,93.30
2018-05-26T01:00:13.330Z,93.20
2018-05-26T01:02:40.916Z,93.30
2018-05-26T01:05:08.479Z,93.60
2018-05-26T01:07:36.107Z,93.90
2018-05-26T01:10:04.030Z,93.70
2018-05-26T01:12:31.616Z,93.70
2018-05-26T01:14:59.167Z,93.60
2018-05-26T01:17:26.709Z,93.70
2018-05-26T01:19:54.287Z,93.70
2018-05-26T01:22:21.880Z,93.80
2018-05-26T01:24:49.435Z,93.80
2018-05-26T01:27:17.023Z,93.60
2018-05-26T01:29:44.577Z,93.40
2018-05-26T01:32:12.157Z,93.40
2018-05-26T01:34:39.699Z,93.30
2018-05-26T01:37:07.252Z,93.20
2018-05-26T01:39:34.794Z,93.00
2018-05-26T01:42:02.389Z,93.20
2018-05-26T01:44:29.975Z,93.40
2018-05-26T01:46:57.562Z,93.80
2018-05-26T01:49:26.128Z,93.80
2018-05-26T01:51:53.746Z,93.90
2018-05-26T01:54:21.317Z,94.10
2018-05-26T01:56:48.918Z,94.40
2018-05-26T01:59:16.530Z,94.10
2018-05-26T02:01:44.150Z,94.20
2018-05-26T02:04:11.732Z,94.30
2018-05-26T02:06:39.280Z,94.30
2018-05-26T02:09:06.908Z,94.60
2018-05-26T02:11:34.492Z,94.10
2018-05-26T02:14:02.077Z,94.00
2018-05-26T02:16:29.646Z,93.90
2018-05-26T02:18:57.265Z,94.00
2018-05-26T02:21:24.849Z,93.90
2018-05-26T02:23:52.465Z,93.80
2018-05-26T02:26:20.005Z,93.80
2018-05-26T02:28:47.557Z,93.80
2018-05-26T02:31:15.114Z,93.90
2018-05-26T02:33:42.679Z,94.10
2018-05-26T02:36:10.258Z,94.10
2018-05-26T02:38:37.837Z,94.50
2018-05-26T02:41:05.400Z,94.30
2018-05-26T02:43:32.975Z,94.10
2018-05-26T02:46:00.554Z,94.50
2018-05-26T02:48:28.558Z,94.40
2018-05-26T02:50:56.106Z,94.50
2018-05-26T02:53:23.705Z,94.40
2018-05-26T02:55:51.544Z,94.40
2018-05-26T02:58:19.443Z,94.30
2018-05-26T03:00:47.010Z,94.40
2018-05-26T03:03:19.076Z,94.30
2018-05-26T03:05:52.384Z,94.40
2018-05-26T03:08:25.627Z,94.30
2018-05-26T03:10:58.982Z,94.40
2018-05-26T03:13:32.105Z,94.60
2018-05-26T03:16:03.290Z,94.60
2018-05-26T03:18:30.900Z,94.60
2018-05-26T03:20:58.468Z,94.20
2018-05-26T03:23:26.057Z,94.10
2018-05-26T03:25:53.610Z,94.20
2018-05-26T03:28:21.178Z,94.10
2018-05-26T03:30:48.786Z,93.90
2018-05-26T03:33:16.354Z,93.70
2018-05-26T03:35:43.938Z,93.60
2018-05-26T03:38:11.548Z,93.90
2018-05-26T03:40:39.149Z,93.90
2018-05-26T03:43:06.722Z,93.50
2018-05-26T03:45:34.291Z,93.50
2018-05-26T03:48:01.870Z,93.80
2018-05-26T03:50:29.493Z,94.00
2018-05-26T03:52:57.059Z,94.00
2018-05-26T03:55:37.137Z,93.70
2018-05-26T03:58:16.568Z,93.70
2018-05-26T04:00:44.146Z,93.90
2018-05-26T04:03:11.721Z,94.40
2018-05-26T04:05:39.303Z,94.00
2018-05-26T04:08:08.006Z,94.00
2018-05-26T04:10:35.569Z,94.10
2018-05-26T04:13:03.110Z,94.00
2018-05-26T04:15:30.694Z,93.80
2018-05-26T04:17:58.237Z,93.90
2018-05-26T04:20:25.869Z,93.70
2018-05-26T04:22:53.439Z,93.70
2018-05-26T04:25:21.013Z,93.90
2018-05-26T04:27:48.617Z,93.80
2018-05-26T04:30:16.216Z,93.60
2018-05-26T04:32:43.803Z,93.50
2018-05-26T04:35:11.375Z,93.40
2018-05-26T04:37:38.917Z,93.60
2018-05-26T04:40:06.556Z,93.30
2018-05-26T04:42:34.135Z,93.10
2018-05-26T04:45:01.738Z,92.80
2018-05-26T04:47:29.325Z,92.80
2018-05-26T04:49:56.919Z,92.80
2018-05-26T04:52:26.668Z,92.40
2018-05-26T04:54:54.260Z,92.60
2018-05-26T04:57:22.033Z,92.60
2018-05-26T04:59:49.672Z,92.70
2018-05-26T05:02:17.214Z,92.80
2018-05-26T05:04:44.759Z,92.60
2018-05-26T05:07:12.356Z,92.50
2018-05-26T05:09:39.900Z,92.50
2018-05-26T05:12:07.492Z,92.60
2018-05-26T05:14:35.049Z,92.50
2018-05-26T05:17:02.674Z,92.80
2018-05-26T05:19:30.230Z,92.60
2018-05-26T05:21:58.205Z,92.40
2018-05-26T05:24:25.742Z,92.30
2018-05-26T05:26:53.341Z,92.30
2018-05-26T05:29:20.886Z,92.50
2018-05-26T05:31:48.514Z,92.50
2018-05-26T05:34:16.084Z,92.40
2018-05-26T05:36:43.653Z,92.30
2018-05-26T05:39:11.226Z,92.30
2018-05-26T05:41:38.774Z,92.20
2018-05-26T05:44:06.351Z,92.20
2018-05-26T05:46:33.924Z,92.10
2018-05-26T05:49:01.450Z,91.90
2018-05-26T05:51:29.039Z,91.80
2018-05-26T05:53:56.588Z,91.90
2018-05-26T05:56:24.204Z,91.70
2018-05-26T05:58:51.693Z,91.70
2018-05-26T06:01:19.278Z,91.20
2018-05-26T06:03:46.883Z,91.10
2018-05-26T06:06:14.459Z,90.80
2018-05-26T06:08:41.995Z,90.70
2018-05-26T06:11:09.599Z,90.10
2018-05-26T06:13:37.137Z,89.80
2018-05-26T06:16:04.688Z,89.70
2018-05-26T06:18:32.323Z,89.20
2018-05-26T06:20:59.921Z,88.20
2018-05-26T06:23:27.491Z,88.10
2018-05-26T06:25:55.031Z,88.30
2018-05-26T06:28:22.640Z,88.50
2018-05-26T06:30:50.218Z,88.20
2018-05-26T06:33:17.822Z,87.60
2018-05-26T06:35:45.474Z,86.90
2018-05-26T06:38:13.298Z,87.00
2018-05-26T06:40:49.635Z,86.70
2018-05-26T06:43:21.059Z,85.80
2018-05-26T06:45:48.573Z,85.80
2018-05-26T06:48:16.193Z,86.30
2018-05-26T06:50:47.127Z,86.50
2018-05-26T06:53:16.649Z,85.60
2018-05-26T06:55:48.846Z,84.90
2018-05-26T06:58:16.427Z,83.60
2018-05-26T07:00:43.963Z,83.00
2018-05-26T07:03:11.542Z,83.20
2018-05-26T07:05:39.129Z,82.50
2018-05-26T07:08:07.107Z,82.70
2018-05-26T07:10:34.648Z,82.70
2018-05-26T07:13:02.257Z,81.40
2018-05-26T07:15:29.829Z,80.90
2018-05-26T07:17:57.408Z,80.10
2018-05-26T07:20:24.962Z,79.80
2018-05-26T07:22:52.513Z,79.60
2018-05-26T07:25:20.085Z,79.20
2018-05-26T07:27:47.723Z,78.60
2018-05-26T07:30:15.326Z,78.60
2018-05-26T07:32:42.877Z,78.00
2018-05-26T07:35:10.532Z,78.10
2018-05-26T07:37:38.135Z,76.80
2018-05-26T07:40:05.728Z,76.70
2018-05-26T07:42:33.297Z,75.80
2018-05-26T07:45:01.066Z,74.10
2018-05-26T07:47:28.609Z,74.90
2018-05-26T07:49:56.185Z,75.10
2018-05-26T07:52:23.748Z,74.90
2018-05-26T07:54:51.335Z,74.60
2018-05-26T07:57:19.369Z,74.40
2018-05-26T07:59:46.994Z,74.40
2018-05-26T08:02:14.968Z,74.40
2018-05-26T08:04:42.589Z,74.80
2018-05-26T08:07:10.166Z,75.10
2018-05-26T08:09:37.771Z,75.10
2018-05-26T08:12:06.076Z,75.50
2018-05-26T08:14:33.691Z,75.60
2018-05-26T08:17:01.278Z,75.80
2018-05-26T08:19:28.978Z,75.90
2018-05-26T08:21:56.524Z,75.00
2018-05-26T08:24:24.159Z,74.90
2018-05-26T08:26:51.703Z,73.80
2018-05-26T08:29:21.011Z,73.70
2018-05-26T08:31:48.557Z,73.50
2018-05-26T08:34:16.198Z,72.70
2018-05-26T08:36:44.393Z,72.40
2018-05-26T08:39:12.007Z,70.70
2018-05-26T08:41:39.564Z,70.80
2018-05-26T08:44:07.103Z,71.00
2018-05-26T08:46:34.720Z,71.90
2018-05-26T08:49:02.271Z,70.30
2018-05-26T08:51:29.882Z,69.30
2018-05-26T08:53:57.505Z,69.70
2018-05-26T08:56:25.129Z,69.80
2018-05-26T08:58:52.671Z,69.70
2018-05-26T09:01:20.424Z,68.40
2018-05-26T09:03:48.051Z,67.80
2018-05-26T09:06:15.700Z,68.40
2018-05-26T09:08:43.355Z,67.90
2018-05-26T09:11:11.000Z,68.50
2018-05-26T09:13:38.567Z,66.80
2018-05-26T09:16:06.162Z,68.10
2018-05-26T09:18:33.700Z,66.50
2018-05-26T09:21:01.267Z,67.30
2018-05-26T09:23:28.832Z,66.50
2018-05-26T09:25:56.470Z,66.30
2018-05-26T09:28:24.086Z,65.90
2018-05-26T09:30:52.061Z,65.70
2018-05-26T09:33:19.606Z,65.70
2018-05-26T09:35:47.674Z,63.50
2018-05-26T09:38:15.264Z,63.50
2018-05-26T09:40:42.853Z,62.80
2018-05-26T09:43:10.414Z,63.90
2018-05-26T09:45:37.974Z,63.50
2018-05-26T09:48:05.642Z,64.40
2018-05-26T09:50:33.282Z,66.50
2018-05-26T09:53:01.606Z,64.90
2018-05-26T09:55:29.219Z,66.00
2018-05-26T09:57:56.858Z,66.60
2018-05-26T10:00:24.471Z,65.50
2018-05-26T10:02:52.157Z,63.40
2018-05-26T10:05:20.062Z,64.50
2018-05-26T10:07:47.654Z,64.80
2018-05-26T10:10:15.703Z,63.10
2018-05-26T10:12:43.356Z,63.00
2018-05-26T10:15:11.016Z,63.70
2018-05-26T10:17:38.711Z,62.50
2018-05-26T10:20:06.335Z,62.20
2018-05-26T10:22:34.009Z,62.60
2018-05-26T10:25:01.563Z,62.50
2018-05-26T10:27:29.142Z,61.90
2018-05-26T10:29:56.734Z,62.60
2018-05-26T10:32:24.318Z,60.50
2018-05-26T10:34:51.869Z,60.10
2018-05-26T10:37:19.466Z,59.80
2018-05-26T10:39:47.022Z,60.10
2018-05-26T10:42:14.620Z,59.60
2018-05-26T10:44:42.560Z,59.70
2018-05-26T10:47:21.123Z,59.60
2018-05-26T10:49:48.674Z,58.50
2018-05-26T10:52:18.053Z,57.40
2018-05-26T10:54:45.638Z,58.60
2018-05-26T10:57:13.622Z,58.40
2018-05-26T10:59:41.202Z,58.50
2018-05-26T11:02:08.779Z,57.70
2018-05-26T11:04:36.345Z,57.30
2018-05-26T11:07:03.929Z,58.60
2018-05-26T11:09:31.500Z,59.00
2018-05-26T11:11:59.072Z,57.50
2018-05-26T11:14:26.689Z,60.00
2018-05-26T11:16:54.242Z,59.30
2018-05-26T11:19:21.873Z,57.30
2018-05-26T11:21:49.388Z,58.70
2018-05-26T11:24:16.988Z,58.20
2018-05-26T11:26:44.569Z,60.00
2018-05-26T11:29:12.119Z,59.20
2018-05-26T11:31:39.653Z,59.10
2018-05-26T11:34:07.271Z,56.80
2018-05-26T11:36:34.822Z,56.30
2018-05-26T11:39:02.843Z,56.50
2018-05-26T11:41:30.357Z,56.50
2018-05-26T11:43:57.943Z,58.40
2018-05-26T11:46:25.482Z,58.40
2018-05-26T11:48:53.051Z,58.00
2018-05-26T11:51:20.592Z,56.80
2018-05-26T11:53:48.153Z,56.30
2018-05-26T11:56:15.725Z,56.70
2018-05-26T11:58:43.342Z,56.40
2018-05-26T12:01:10.869Z,56.20
2018-05-26T12:03:38.478Z,57.20
2018-05-26T12:06:06.076Z,56.50
2018-05-26T12:08:33.656Z,57.30
2018-05-26T12:11:01.272Z,57.50
2018-05-26T12:13:28.884Z,56.50
2018-05-26T12:15:56.468Z,57.00
2018-05-26T12:18:24.395Z,56.40
2018-05-26T12:20:52.019Z,56.40
2018-05-26T12:23:19.600Z,55.80
2018-05-26T12:25:47.142Z,56.60
2018-05-26T12:28:14.849Z,57.30
2018-05-26T12:30:42.433Z,55.70
2018-05-26T12:33:10.008Z,55.30
2018-05-26T12:35:37.572Z,55.10
2018-05-26T12:38:05.117Z,56.10
2018-05-26T12:40:32.724Z,55.20
2018-05-26T12:43:00.281Z,55.20
2018-05-26T12:45:28.100Z,54.80
2018-05-26T12:47:55.686Z,55.70
2018-05-26T12:50:23.261Z,54.40
2018-05-26T12:52:50.807Z,54.50
2018-05-26T12:55:18.401Z,54.60
2018-05-26T12:57:45.922Z,54.80
2018-05-26T13:00:13.523Z,54.60
2018-05-26T13:02:41.070Z,53.90
2018-05-26T13:05:08.670Z,54.00
2018-05-26T13:07:36.270Z,53.10
2018-05-26T13:10:03.846Z,52.70
2018-05-26T13:12:31.396Z,52.40
2018-05-26T13:14:59.024Z,52.40
2018-05-26T13:17:26.573Z,51.30
2018-05-26T13:19:54.146Z,50.60
2018-05-26T13:22:21.755Z,50.80
2018-05-26T13:24:49.284Z,49.80
2018-05-26T13:27:16.910Z,50.00
2018-05-26T13:29:44.466Z,49.60
2018-05-26T13:32:12.048Z,48.80
2018-05-26T13:34:39.605Z,48.10
2018-05-26T13:37:07.163Z,48.00
2018-05-26T13:39:34.723Z,46.70
2018-05-26T13:42:02.292Z,45.80
2018-05-26T13:44:29.837Z,44.90
2018-05-26T13:46:57.422Z,46.00
2018-05-26T13:49:24.967Z,46.40
2018-05-26T13:51:52.525Z,44.00
2018-05-26T13:54:20.089Z,44.10
2018-05-26T13:56:47.673Z,44.50
2018-05-26T13:59:15.203Z,44.20
2018-05-26T14:01:42.771Z,43.60
2018-05-26T14:04:10.323Z,44.00
2018-05-26T14:06:37.943Z,42.90
2018-05-26T14:09:05.534Z,43.40
2018-05-26T14:11:33.159Z,43.40
2018-05-26T14:14:00.694Z,42.60
2018-05-26T14:16:28.262Z,43.20
2018-05-26T14:18:55.820Z,42.40
2018-05-26T14:21:23.443Z,41.60
2018-05-26T14:23:50.989Z,40.70
2018-05-26T14:26:18.606Z,41.90
2018-05-26T14:28:46.221Z,41.10
2018-05-26T14:31:13.763Z,42.00
2018-05-26T14:33:41.397Z,41.00
2018-05-26T14:36:09.002Z,41.60
2018-05-26T14:38:36.630Z,42.80
2018-05-26T14:41:04.180Z,42.80
2018-05-26T14:43:31.777Z,43.10
2018-05-26T14:45:59.337Z,43.20
2018-05-26T14:48:26.934Z,43.20
2018-05-26T14:50:54.489Z,43.20
2018-05-26T14:53:22.059Z,43.20
2018-05-26T14:55:49.604Z,43.40
2018-05-26T14:58:17.188Z,43.60
2018-05-26T15:00:44.750Z,43.80
2018-05-26T15:03:12.333Z,43.70
2018-05-26T15:05:39.870Z,44.00
2018-05-26T15:08:07.496Z,45.40
2018-05-26T15:10:35.122Z,46.70
2018-05-26T15:13:02.746Z,46.90
2018-05-26T15:15:30.283Z,46.20
2018-05-26T15:17:57.891Z,48.10
2018-05-26T15:20:25.414Z,49.30
2018-05-26T15:22:54.002Z,49.40
2018-05-26T15:25:21.549Z,48.50
2018-05-26T15:27:49.159Z,50.30
2018-05-26T15:30:16.703Z,50.40
2018-05-26T15:32:44.281Z,50.80
2018-05-26T15:35:11.873Z,50.40
2018-05-26T15:37:39.448Z,50.10
2018-05-26T15:40:07.024Z,49.80
2018-05-26T15:42:34.577Z,49.50
2018-05-26T15:45:02.179Z,49.50
2018-05-26T15:47:29.751Z,50.60
2018-05-26T15:49:57.348Z,50.70
2018-05-26T15:52:24.909Z,50.90
2018-05-26T15:54:52.482Z,49.50
2018-05-26T15:57:20.037Z,50.00
2018-05-26T15:59:47.670Z,51.40
2018-05-26T16:02:15.218Z,49.70
2018-05-26T16:04:42.811Z,50.00
2018-05-26T16:07:10.340Z,51.30
2018-05-26T16:09:37.945Z,50.10
2018-05-26T16:12:05.501Z,50.40
2018-05-26T16:14:33.086Z,50.30
2018-05-26T16:17:01.083Z,50.30
2018-05-26T16:19:28.637Z,50.20
2018-05-26T16:21:56.202Z,50.10
2018-05-26T16:24:23.793Z,50.20
2018-05-26T16:26:51.323Z,50.40
2018-05-26T16:29:18.897Z,50.70
2018-05-26T16:31:46.456Z,50.20
2018-05-26T16:34:14.042Z,50.20
2018-05-26T16:36:41.580Z,50.00
2018-05-26T16:39:09.163Z,49.60
2018-05-26T16:41:36.749Z,49.60
2018-05-26T16:44:04.375Z,51.00
2018-05-26T16:46:31.995Z,50.10
2018-05-26T16:48:59.559Z,51.20
2018-05-26T16:51:27.130Z,51.70
2018-05-26T16:53:54.754Z,51.80
2018-05-26T16:56:22.321Z,51.40
2018-05-26T16:58:49.882Z,53.10
2018-05-26T17:01:17.453Z,53.20
2018-05-26T17:03:44.987Z,52.40
2018-05-26T17:06:12.570Z,51.90
2018-05-26T17:08:40.111Z,52.90
2018-05-26T17:11:07.703Z,52.50
2018-05-26T17:13:35.283Z,52.00
2018-05-26T17:16:02.860Z,51.70
2018-05-26T17:18:32.018Z,50.40
2018-05-26T17:20:59.629Z,50.50
2018-05-26T17:23:27.151Z,50.90
2018-05-26T17:25:54.748Z,51.00
2018-05-26T17:28:22.358Z,50.40
2018-05-26T17:30:50.007Z,50.60
2018-05-26T17:33:18.379Z,51.40
2018-05-26T17:35:45.973Z,50.80
2018-05-26T17:38:13.954Z,50.60
2018-05-26T17:40:41.503Z,50.50
2018-05-26T17:43:09.433Z,50.60
2018-05-26T17:45:37.001Z,50.60
2018-05-26T17:48:04.606Z,50.90
2018-05-26T17:50:32.250Z,51.00
2018-05-26T17:52:59.870Z,51.00
2018-05-26T17:55:27.443Z,51.50
2018-05-26T17:57:55.015Z,51.90
2018-05-26T18:00:22.632Z,51.40
2018-05-26T18:02:50.246Z,52.40
2018-05-26T18:05:17.790Z,52.70
2018-05-26T18:07:45.377Z,52.50
2018-05-26T18:10:13.306Z,54.10
2018-05-26T18:12:40.889Z,54.10
2018-05-26T18:15:08.926Z,54.40
2018-05-26T18:17:36.472Z,54.40
2018-05-26T18:20:03.996Z,54.80
2018-05-26T18:22:31.540Z,55.80
2018-05-26T18:24:59.099Z,56.00
2018-05-26T18:27:27.043Z,57.90
2018-05-26T18:29:54.619Z,57.90
2018-05-26T18:32:22.619Z,58.90
2018-05-26T18:34:50.192Z,58.90
2018-05-26T18:37:17.847Z,60.20
2018-05-26T18:39:45.416Z,60.80
2018-05-26T18:42:12.948Z,61.40
2018-05-26T18:44:40.646Z,62.00
2018-05-26T18:47:08.258Z,62.30
2018-05-26T18:49:35.858Z,62.50
2018-05-26T18:52:03.481Z,63.00
2018-05-26T18:54:31.025Z,63.80
2018-05-26T18:56:58.992Z,65.30
2018-05-26T18:59:26.564Z,65.30
2018-05-26T19:01:54.235Z,65.60
2018-05-26T19:04:21.821Z,66.40
2018-05-26T19:06:49.391Z,68.10
2018-05-26T19:09:16.950Z,68.40
2018-05-26T19:14:43.705Z,69.90
2018-05-26T19:17:11.221Z,71.00
2018-05-26T19:19:38.721Z,72.00
2018-05-26T19:22:06.342Z,73.10
2018-05-26T19:24:33.854Z,73.60
2018-05-26T19:27:01.431Z,73.70
2018-05-26T19:29:29.057Z,74.20
2018-05-26T19:31:56.597Z,74.80
2018-05-26T19:34:24.215Z,75.20
2018-05-26T19:36:51.822Z,75.10
2018-05-26T19:39:19.406Z,75.70
2018-05-26T19:41:46.980Z,75.80
2018-05-26T19:44:14.560Z,75.80
2018-05-26T19:46:42.146Z,76.80
2018-05-26T19:49:10.159Z,78.00
2018-05-26T19:51:37.730Z,78.00
2018-05-26T19:54:05.346Z,78.50
2018-05-26T19:56:32.946Z,78.80
2018-05-26T19:59:00.513Z,79.10
2018-05-26T20:01:28.082Z,79.30
2018-05-26T20:03:55.652Z,79.20
2018-05-26T20:06:23.595Z,79.40
2018-05-26T20:08:51.163Z,79.40
2018-05-26T20:11:18.730Z,79.60
2018-05-26T20:13:46.287Z,80.00
2018-05-26T20:16:13.830Z,80.20
2018-05-26T20:18:41.454Z,80.60
2018-05-26T20:21:09.039Z,81.20
2018-05-26T20:23:36.605Z,81.40
2018-05-26T20:26:04.170Z,82.10
2018-05-26T20:28:31.776Z,82.20
2018-05-26T20:30:59.355Z,82.40
2018-05-26T20:33:26.901Z,82.40
2018-05-26T20:35:54.480Z,82.40
2018-05-26T20:38:22.030Z,82.70
2018-05-26T20:40:49.651Z,83.10
2018-05-26T20:43:17.285Z,83.20
2018-05-26T20:45:44.852Z,83.10
2018-05-26T20:48:12.455Z,82.70
2018-05-26T20:50:40.013Z,82.60
2018-05-26T20:53:07.549Z,82.50
2018-05-26T20:55:35.125Z,82.60
2018-05-26T20:58:02.696Z,83.00
2018-05-26T21:00:30.257Z,83.20
2018-05-26T21:02:57.873Z,83.10
2018-05-26T21:05:25.854Z,83.70
2018-05-26T21:07:53.442Z,83.70
2018-05-26T21:10:21.800Z,83.90
2018-05-26T21:12:49.393Z,84.20
2018-05-26T21:15:16.951Z,84.30
2018-05-26T21:17:44.493Z,84.50
2018-05-26T21:20:12.088Z,84.60
2018-05-26T21:22:39.610Z,85.00
2018-05-26T21:25:07.227Z,85.20
2018-05-26T21:27:34.800Z,85.60
2018-05-26T21:30:02.424Z,85.80
2018-05-26T21:32:30.020Z,85.90
2018-05-26T21:34:57.648Z,86.20
2018-05-26T21:37:25.179Z,86.40
2018-05-26T21:39:52.787Z,86.70
2018-05-26T21:42:20.334Z,87.10
2018-05-26T21:44:47.897Z,87.30
2018-05-26T21:47:15.515Z,87.40
2018-05-26T21:49:43.042Z,87.80
2018-05-26T21:52:10.628Z,88.00
2018-05-26T21:54:38.203Z,88.10
2018-05-26T21:57:05.781Z,88.30
2018-05-26T21:59:33.358Z,88.20
2018-05-26T22:02:00.921Z,88.30
2018-05-26T22:04:29.842Z,88.40
2018-05-26T22:06:57.431Z,88.60
2018-05-26T22:09:24.977Z,88.80
2018-05-26T22:11:52.629Z,88.80
2018-05-26T22:14:20.407Z,89.10
2018-05-26T22:16:47.974Z,89.30
2018-05-26T22:19:15.601Z,89.70
2018-05-26T22:21:43.175Z,89.60
2018-05-26T22:24:10.734Z,89.70
2018-05-26T22:26:38.318Z,89.80
2018-05-26T22:29:05.916Z,89.80
2018-05-26T22:31:33.528Z,89.70
2018-05-26T22:34:01.136Z,89.80
2018-05-26T22:36:28.747Z,89.80
2018-05-26T22:38:56.276Z,89.80
2018-05-26T22:41:23.869Z,89.90
2018-05-26T22:43:51.416Z,89.60
2018-05-26T22:46:19.002Z,89.90
2018-05-26T22:48:46.941Z,89.60
2018-05-26T22:51:14.490Z,89.60
2018-05-26T22:53:42.042Z,89.40
2018-05-26T22:56:09.616Z,89.30
2018-05-26T22:58:37.201Z,89.50
2018-05-26T23:01:05.187Z,89.90
2018-05-26T23:03:32.755Z,89.90
2018-05-26T23:06:00.337Z,90.10
2018-05-26T23:08:27.917Z,90.10
2018-05-26T23:10:55.541Z,90.30
2018-05-26T23:13:23.123Z,90.40
2018-05-26T23:15:50.685Z,90.50
2018-05-26T23:18:18.248Z,90.60
2018-05-26T23:20:45.828Z,90.40
2018-05-26T23:23:13.452Z,89.90
2018-05-26T23:25:41.054Z,90.00
2018-05-26T23:28:08.636Z,90.00
2018-05-26T23:30:36.231Z,90.00
2018-05-26T23:33:03.811Z,90.70
2018-05-26T23:35:31.433Z,90.70
2018-05-26T23:37:59.018Z,90.70
2018-05-26T23:40:26.582Z,90.40
2018-05-26T23:42:54.219Z,90.40
2018-05-26T23:45:21.776Z,90.60
2018-05-26T23:47:49.373Z,90.30
2018-05-26T23:50:16.990Z,90.10
2018-05-26T23:52:44.607Z,90.20
2018-05-26T23:55:12.181Z,90.70
2018-05-26T23:57:39.765Z,90.80
